createdAt,value
2019-02-15T00:00:40.821Z,59.58
2019-02-15T00:01:25.153Z,59.51
2019-02-15T00:02:01.429Z,59.23
2019-02-15T00:02:37.454Z,59.08
2019-02-15T00:03:13.639Z,59.08
2019-02-15T00:03:49.877Z,59.01
2019-02-15T00:04:25.938Z,59.01
2019-02-15T00:05:02.095Z,58.97
2019-02-15T00:05:38.262Z,58.79
2019-02-15T00:06:14.479Z,59.27
2019-02-15T00:06:50.519Z,58.98
2019-02-15T00:07:26.493Z,57.99
2019-02-15T00:08:02.483Z,57.99
2019-02-15T00:08:38.794Z,57.53
2019-02-15T00:09:15.069Z,57.41
2019-02-15T00:09:51.427Z,57.28
2019-02-15T00:10:27.571Z,57.37
2019-02-15T00:11:03.651Z,57.37
2019-02-15T00:11:39.701Z,57.62
2019-02-15T00:12:15.984Z,57.62
2019-02-15T00:12:52.092Z,57.78
2019-02-15T00:13:28.205Z,57.77
2019-02-15T00:14:04.336Z,57.83
2019-02-15T00:14:58.725Z,57.67
2019-02-15T00:15:34.656Z,57.67
2019-02-15T00:16:10.830Z,57.77
2019-02-15T00:16:47.062Z,57.77
2019-02-15T00:17:40.410Z,57.44
2019-02-15T00:18:33.509Z,57.33
2019-02-15T00:19:37.323Z,56.65
2019-02-15T00:20:21.954Z,57.10
2019-02-15T00:21:20.577Z,57.10
2019-02-15T00:21:56.504Z,56.57
2019-02-15T00:22:32.612Z,56.50
2019-02-15T00:23:08.641Z,56.63
2019-02-15T00:23:44.875Z,56.63
2019-02-15T00:24:21.084Z,56.08
2019-02-15T00:24:57.304Z,56.55
2019-02-15T00:25:33.334Z,56.55
2019-02-15T00:26:09.629Z,56.21
2019-02-15T00:26:45.783Z,55.75
2019-02-15T00:27:21.862Z,55.75
2019-02-15T00:27:57.954Z,55.90
2019-02-15T00:28:34.120Z,55.95
2019-02-15T00:29:10.200Z,55.53
2019-02-15T00:29:46.293Z,55.53
2019-02-15T00:30:22.400Z,56.29
2019-02-15T00:30:58.705Z,56.45
2019-02-15T00:31:35.014Z,56.44
2019-02-15T00:32:11.096Z,56.13
2019-02-15T00:32:47.345Z,56.13
2019-02-15T00:33:23.815Z,56.41
2019-02-15T00:33:59.789Z,55.81
2019-02-15T00:34:35.766Z,56.50
2019-02-15T00:35:12.118Z,56.60
2019-02-15T00:35:48.154Z,56.60
2019-02-15T00:36:24.138Z,56.29
2019-02-15T00:37:00.500Z,56.38
2019-02-15T00:37:36.707Z,56.54
2019-02-15T00:38:12.939Z,56.45
2019-02-15T00:38:49.260Z,56.67
2019-02-15T00:39:25.285Z,56.55
2019-02-15T00:40:01.367Z,56.55
2019-02-15T00:40:37.308Z,56.47
2019-02-15T00:41:13.366Z,56.56
2019-02-15T00:41:49.459Z,57.06
2019-02-15T00:42:25.549Z,57.06
2019-02-15T00:43:01.619Z,57.00
2019-02-15T00:43:39.411Z,57.00
2019-02-15T00:44:15.636Z,56.78
2019-02-15T00:44:51.747Z,56.49
2019-02-15T00:45:30.301Z,56.49
2019-02-15T00:46:28.237Z,56.36
2019-02-15T00:47:31.843Z,55.33
2019-02-15T00:48:12.416Z,55.33
2019-02-15T00:48:48.552Z,54.83
2019-02-15T00:49:37.978Z,54.24
2019-02-15T00:50:28.680Z,53.89
2019-02-15T00:51:26.295Z,53.89
2019-02-15T00:52:16.305Z,53.09
2019-02-15T00:53:11.162Z,53.09
2019-02-15T00:53:52.490Z,52.71
2019-02-15T00:54:33.619Z,52.31
2019-02-15T00:55:34.099Z,52.61
2019-02-15T00:56:23.294Z,52.95
2019-02-15T00:57:16.489Z,53.38
2019-02-15T00:58:06.279Z,53.38
2019-02-15T00:59:01.206Z,53.53
2019-02-15T00:59:58.847Z,53.75
2019-02-15T01:00:49.648Z,54.11
2019-02-15T01:01:41.633Z,54.27
2019-02-15T01:02:54.828Z,54.27
2019-02-15T01:03:49.342Z,53.92
2019-02-15T01:04:44.013Z,53.92
2019-02-15T01:05:53.879Z,54.22
2019-02-15T01:06:51.566Z,54.03
2019-02-15T01:07:52.286Z,54.03
2019-02-15T01:08:45.399Z,53.72
2019-02-15T01:09:46.380Z,53.85
2019-02-15T01:10:50.027Z,52.89
2019-02-15T01:11:32.357Z,52.89
2019-02-15T01:12:14.855Z,53.27
2019-02-15T01:13:04.524Z,53.27
2019-02-15T01:13:40.546Z,52.44
2019-02-15T01:14:16.703Z,51.08
2019-02-15T01:14:52.795Z,50.40
2019-02-15T01:15:29.009Z,50.35
2019-02-15T01:16:04.979Z,50.25
2019-02-15T01:16:41.052Z,49.80
2019-02-15T01:17:17.245Z,49.27
2019-02-15T01:17:53.607Z,48.88
2019-02-15T01:18:29.757Z,48.73
2019-02-15T01:19:05.725Z,48.74
2019-02-15T01:19:41.768Z,48.40
2019-02-15T01:20:17.798Z,48.27
2019-02-15T01:20:53.978Z,48.08
2019-02-15T01:21:30.066Z,47.83
2019-02-15T01:22:06.253Z,47.73
2019-02-15T01:22:42.411Z,47.59
2019-02-15T01:23:18.586Z,47.36
2019-02-15T01:23:54.663Z,47.16
2019-02-15T01:24:30.861Z,46.93
2019-02-15T01:25:07.075Z,46.89
2019-02-15T01:43:53.774Z,44.98
2019-02-15T01:44:37.584Z,45.13
2019-02-15T01:45:20.730Z,45.44
2019-02-15T01:46:02.019Z,45.48
2019-02-15T01:46:45.549Z,45.58
2019-02-15T01:47:34.981Z,45.10
2019-02-15T01:48:11.107Z,45.04
2019-02-15T01:48:47.177Z,44.95
2019-02-15T01:49:23.404Z,45.12
2019-02-15T01:49:59.680Z,45.10
2019-02-15T01:50:35.878Z,45.07
2019-02-15T01:51:12.029Z,45.05
2019-02-15T01:51:48.307Z,44.93
2019-02-15T01:52:24.276Z,44.86
2019-02-15T01:53:00.167Z,44.76
2019-02-15T01:53:36.179Z,44.66
2019-02-15T01:54:12.232Z,44.55
2019-02-15T01:54:48.297Z,44.51
2019-02-15T01:55:24.651Z,44.35
2019-02-15T01:56:00.756Z,44.21
2019-02-15T01:56:36.804Z,43.96
2019-02-15T01:57:13.024Z,43.74
2019-02-15T01:57:49.019Z,43.49
2019-02-15T01:58:25.169Z,43.44
2019-02-15T01:59:01.456Z,43.09
2019-02-15T01:59:37.607Z,43.14
2019-02-15T02:00:16.253Z,43.22
2019-02-15T02:00:52.382Z,43.28
2019-02-15T02:01:29.524Z,43.28
2019-02-15T02:02:05.710Z,43.24
2019-02-15T02:02:41.803Z,43.20
2019-02-15T02:03:18.089Z,43.07
2019-02-15T02:03:54.025Z,43.04
2019-02-15T02:04:29.968Z,43.05
2019-02-15T02:05:06.094Z,43.11
2019-02-15T02:05:42.399Z,43.24
2019-02-15T02:06:18.542Z,43.41
2019-02-15T02:06:54.743Z,43.56
2019-02-15T02:07:30.882Z,43.76
2019-02-15T02:08:08.752Z,43.84
2019-02-15T02:08:44.843Z,44.08
2019-02-15T02:09:21.014Z,44.01
2019-02-15T02:09:57.126Z,43.92
2019-02-15T02:10:33.567Z,43.69
2019-02-15T02:11:09.604Z,43.45
2019-02-15T02:11:45.794Z,43.25
2019-02-15T02:12:21.788Z,43.15
2019-02-15T02:12:57.871Z,43.00
2019-02-15T02:13:33.998Z,42.78
2019-02-15T02:14:10.123Z,42.53
2019-02-15T02:14:46.278Z,42.52
2019-02-15T02:15:22.238Z,42.46
2019-02-15T02:15:58.385Z,42.49
2019-02-15T02:16:34.723Z,42.44
2019-02-15T02:17:10.854Z,42.48
2019-02-15T02:17:46.993Z,42.56
2019-02-15T02:18:23.147Z,42.40
2019-02-15T02:18:59.257Z,42.28
2019-02-15T02:19:35.488Z,42.18
2019-02-15T02:20:12.584Z,42.09
2019-02-15T02:20:48.746Z,42.07
2019-02-15T02:21:24.783Z,42.19
2019-02-15T02:22:00.957Z,42.46
2019-02-15T02:22:37.229Z,42.57
2019-02-15T02:23:13.278Z,42.53
2019-02-15T02:23:49.331Z,42.51
2019-02-15T02:24:25.364Z,42.48
2019-02-15T02:25:01.578Z,42.37
2019-02-15T02:25:37.718Z,42.26
2019-02-15T02:26:14.043Z,42.13
2019-02-15T02:26:50.067Z,41.93
2019-02-15T02:27:26.420Z,41.81
2019-02-15T02:28:02.678Z,41.68
2019-02-15T02:28:38.856Z,41.67
2019-02-15T02:29:14.910Z,41.88
2019-02-15T02:29:50.930Z,41.68
2019-02-15T02:30:27.135Z,41.47
2019-02-15T02:31:03.419Z,41.46
2019-02-15T02:31:39.577Z,41.57
2019-02-15T02:32:15.739Z,41.63
2019-02-15T02:32:51.988Z,41.70
2019-02-15T02:33:28.183Z,41.83
2019-02-15T02:34:04.431Z,41.90
2019-02-15T02:34:40.984Z,42.25
2019-02-15T02:35:18.304Z,42.45
2019-02-15T02:35:54.323Z,42.46
2019-02-15T02:36:54.297Z,42.41
2019-02-15T02:37:30.500Z,42.28
2019-02-15T02:38:06.800Z,41.89
2019-02-15T02:38:42.920Z,41.85
2019-02-15T02:39:19.085Z,41.78
2019-02-15T02:39:55.220Z,41.60
2019-02-15T02:40:31.459Z,41.55
2019-02-15T02:41:07.725Z,41.53
2019-02-15T02:41:44.081Z,41.50
2019-02-15T02:42:20.152Z,41.48
2019-02-15T02:42:56.179Z,41.48
2019-02-15T02:43:32.190Z,41.69
2019-02-15T02:44:08.208Z,41.62
2019-02-15T02:44:44.598Z,41.23
2019-02-15T02:45:20.662Z,41.15
2019-02-15T02:45:56.826Z,41.22
2019-02-15T02:46:33.083Z,41.26
2019-02-15T02:47:09.138Z,41.04
2019-02-15T02:47:45.439Z,41.13
2019-02-15T02:48:21.456Z,40.94
2019-02-15T02:48:57.443Z,40.81
2019-02-15T02:49:33.468Z,40.81
2019-02-15T02:50:09.474Z,40.66
2019-02-15T02:50:45.662Z,40.69
2019-02-15T02:51:21.669Z,40.42
2019-02-15T02:51:57.960Z,40.47
2019-02-15T02:52:34.240Z,40.65
2019-02-15T02:53:10.444Z,40.85
2019-02-15T02:53:46.418Z,40.81
2019-02-15T02:54:22.593Z,40.96
2019-02-15T02:54:58.772Z,40.99
2019-02-15T02:55:35.048Z,40.96
2019-02-15T02:56:11.079Z,40.93
2019-02-15T02:56:47.104Z,40.63
2019-02-15T02:57:23.147Z,40.49
2019-02-15T02:57:59.140Z,40.21
2019-02-15T02:58:35.244Z,40.32
2019-02-15T02:59:11.387Z,40.46
2019-02-15T02:59:47.534Z,40.55
2019-02-15T03:00:32.982Z,40.59
2019-02-15T03:01:01.670Z,40.59
2019-02-15T03:01:37.956Z,40.47
2019-02-15T03:02:14.036Z,40.50
2019-02-15T03:02:50.143Z,40.53
2019-02-15T03:03:26.324Z,40.49
2019-02-15T03:04:02.378Z,40.70
2019-02-15T03:04:38.382Z,40.63
2019-02-15T03:05:14.522Z,40.54
2019-02-15T03:05:50.626Z,40.26
2019-02-15T03:06:26.645Z,39.93
2019-02-15T03:07:02.961Z,39.94
2019-02-15T03:07:39.149Z,40.12
2019-02-15T03:08:15.317Z,40.33
2019-02-15T03:08:51.481Z,40.66
2019-02-15T03:09:27.408Z,40.60
2019-02-15T03:10:03.470Z,40.66
2019-02-15T03:10:39.605Z,40.76
2019-02-15T03:11:15.905Z,40.72
2019-02-15T03:11:51.928Z,40.69
2019-02-15T03:12:28.118Z,40.80
2019-02-15T03:13:04.165Z,40.43
2019-02-15T03:13:40.383Z,40.27
2019-02-15T03:14:16.628Z,40.28
2019-02-15T03:14:52.750Z,40.07
2019-02-15T03:15:28.828Z,40.04
2019-02-15T03:16:05.134Z,40.12
2019-02-15T03:16:41.374Z,40.16
2019-02-15T03:17:17.540Z,40.24
2019-02-15T03:17:53.652Z,40.32
2019-02-15T03:18:29.754Z,40.14
2019-02-15T03:19:05.928Z,39.90
2019-02-15T03:19:42.096Z,40.13
2019-02-15T03:20:18.382Z,40.20
2019-02-15T03:20:54.603Z,40.50
2019-02-15T03:21:30.722Z,40.41
2019-02-15T03:22:06.785Z,40.53
2019-02-15T03:22:43.015Z,40.57
2019-02-15T03:23:19.105Z,40.46
2019-02-15T03:23:55.266Z,40.59
2019-02-15T03:24:31.580Z,40.78
2019-02-15T03:25:07.728Z,40.59
2019-02-15T03:25:43.829Z,40.55
2019-02-15T03:26:19.993Z,40.69
2019-02-15T03:26:56.085Z,40.35
2019-02-15T03:27:32.311Z,40.30
2019-02-15T03:28:08.492Z,40.34
2019-02-15T03:28:44.684Z,40.46
2019-02-15T03:29:20.667Z,40.26
2019-02-15T03:29:56.839Z,40.16
2019-02-15T03:30:32.925Z,40.04
2019-02-15T03:31:09.128Z,40.06
2019-02-15T03:31:45.219Z,40.17
2019-02-15T03:32:21.334Z,40.39
2019-02-15T03:32:57.573Z,40.55
2019-02-15T03:33:33.811Z,40.43
2019-02-15T03:34:10.134Z,40.43
2019-02-15T03:34:46.182Z,40.57
2019-02-15T03:35:22.417Z,40.79
2019-02-15T03:36:03.136Z,40.92
2019-02-15T03:37:06.694Z,40.88
2019-02-15T03:38:02.314Z,40.75
2019-02-15T03:39:02.852Z,40.55
2019-02-15T03:39:44.953Z,40.16
2019-02-15T03:40:33.922Z,39.97
2019-02-15T03:41:26.514Z,39.80
2019-02-15T03:42:02.731Z,40.03
2019-02-15T03:42:38.706Z,40.48
2019-02-15T03:43:14.838Z,40.63
2019-02-15T03:43:50.925Z,40.79
2019-02-15T03:44:27.003Z,40.76
2019-02-15T03:45:03.166Z,40.74
2019-02-15T03:45:39.580Z,40.97
2019-02-15T03:46:15.669Z,40.91
2019-02-15T03:46:52.127Z,40.93
2019-02-15T03:47:28.808Z,40.98
2019-02-15T03:48:05.044Z,41.00
2019-02-15T03:48:41.123Z,41.17
2019-02-15T03:49:17.160Z,40.73
2019-02-15T03:49:53.169Z,40.61
2019-02-15T03:50:29.275Z,40.58
2019-02-15T03:51:05.461Z,40.76
2019-02-15T03:51:41.526Z,40.87
2019-02-15T03:52:17.576Z,40.82
2019-02-15T03:52:53.717Z,41.01
2019-02-15T03:53:29.895Z,41.21
2019-02-15T03:54:06.150Z,41.05
2019-02-15T03:54:42.384Z,40.79
2019-02-15T03:55:18.539Z,40.68
2019-02-15T03:55:54.833Z,40.80
2019-02-15T03:56:30.975Z,40.79
2019-02-15T03:57:07.218Z,40.91
2019-02-15T03:57:43.310Z,40.82
2019-02-15T03:58:19.436Z,40.91
2019-02-15T03:58:55.543Z,41.02
2019-02-15T03:59:31.703Z,40.96
2019-02-15T04:00:09.116Z,40.98
2019-02-15T04:00:45.175Z,40.83
2019-02-15T04:01:21.149Z,40.89
2019-02-15T04:01:57.457Z,40.91
2019-02-15T04:02:33.747Z,40.87
2019-02-15T04:03:09.869Z,40.88
2019-02-15T04:03:46.227Z,40.98
2019-02-15T04:04:22.319Z,41.07
2019-02-15T04:04:58.348Z,41.14
2019-02-15T04:05:34.386Z,41.21
2019-02-15T04:06:10.673Z,41.19
2019-02-15T04:06:46.773Z,40.77
2019-02-15T04:07:22.871Z,40.67
2019-02-15T04:07:59.124Z,40.71
2019-02-15T04:08:35.269Z,40.67
2019-02-15T04:09:11.616Z,40.77
2019-02-15T04:09:47.917Z,40.94
2019-02-15T04:10:24.135Z,40.74
2019-02-15T04:11:00.322Z,40.45
2019-02-15T04:11:36.566Z,40.29
2019-02-15T04:12:12.877Z,40.41
2019-02-15T04:12:48.925Z,40.67
2019-02-15T04:13:24.989Z,40.80
2019-02-15T04:14:01.117Z,40.82
2019-02-15T04:14:37.200Z,40.94
2019-02-15T04:15:13.248Z,41.08
2019-02-15T04:15:49.260Z,41.41
2019-02-15T04:16:25.329Z,41.74
2019-02-15T04:17:01.394Z,41.86
2019-02-15T04:17:37.596Z,41.96
2019-02-15T04:18:13.834Z,42.09
2019-02-15T04:18:49.955Z,42.17
2019-02-15T04:19:26.314Z,42.15
2019-02-15T04:20:02.268Z,41.98
2019-02-15T04:20:38.456Z,41.85
2019-02-15T04:21:14.506Z,41.88
2019-02-15T04:21:50.790Z,41.86
2019-02-15T04:22:27.012Z,41.82
2019-02-15T04:23:03.111Z,41.81
2019-02-15T04:23:39.304Z,41.78
2019-02-15T04:24:15.252Z,41.76
2019-02-15T04:24:51.378Z,41.81
2019-02-15T04:25:27.663Z,41.65
2019-02-15T04:26:03.897Z,41.63
2019-02-15T04:26:40.049Z,41.97
2019-02-15T04:27:16.462Z,41.92
2019-02-15T04:27:52.523Z,42.02
2019-02-15T04:28:28.863Z,42.20
2019-02-15T04:29:05.005Z,42.18
2019-02-15T04:29:41.185Z,42.15
2019-02-15T04:30:17.344Z,41.93
2019-02-15T04:30:53.619Z,41.89
2019-02-15T04:31:29.753Z,41.76
2019-02-15T04:32:05.990Z,41.71
2019-02-15T04:32:42.083Z,41.75
2019-02-15T04:33:18.158Z,41.81
2019-02-15T04:33:54.128Z,41.99
2019-02-15T04:34:30.329Z,42.01
2019-02-15T04:35:06.502Z,42.09
2019-02-15T04:35:42.591Z,42.28
2019-02-15T04:36:18.638Z,42.23
2019-02-15T04:36:54.865Z,42.32
2019-02-15T04:37:30.873Z,42.54
2019-02-15T04:38:06.942Z,42.62
2019-02-15T04:38:43.048Z,42.69
2019-02-15T04:39:19.095Z,42.98
2019-02-15T04:39:55.240Z,42.89
2019-02-15T04:40:31.371Z,42.73
2019-02-15T04:41:07.542Z,42.86
2019-02-15T04:41:43.761Z,42.96
2019-02-15T04:42:19.864Z,43.16
2019-02-15T04:42:56.020Z,43.10
2019-02-15T04:43:32.027Z,43.05
2019-02-15T04:44:08.077Z,43.02
2019-02-15T04:44:44.224Z,43.27
2019-02-15T04:45:20.504Z,43.34
2019-02-15T04:45:56.657Z,43.39
2019-02-15T04:46:32.899Z,43.36
2019-02-15T04:47:09.114Z,43.50
2019-02-15T04:47:45.238Z,43.55
2019-02-15T04:48:21.528Z,43.53
2019-02-15T04:48:57.741Z,43.63
2019-02-15T04:49:33.863Z,43.85
2019-02-15T04:50:10.893Z,43.76
2019-02-15T04:50:47.022Z,43.69
2019-02-15T04:51:23.254Z,43.70
2019-02-15T04:51:59.454Z,43.77
2019-02-15T04:52:35.842Z,43.90
2019-02-15T04:53:12.185Z,43.98
2019-02-15T04:53:48.391Z,43.91
2019-02-15T04:54:24.356Z,43.76
2019-02-15T04:55:00.371Z,43.61
2019-02-15T04:55:36.623Z,43.62
2019-02-15T04:56:12.888Z,43.70
2019-02-15T04:56:49.030Z,43.73
2019-02-15T04:57:25.077Z,43.74
2019-02-15T04:58:01.316Z,43.71
2019-02-15T04:58:37.501Z,43.73
2019-02-15T04:59:13.582Z,43.62
2019-02-15T04:59:49.798Z,43.53
2019-02-15T05:00:26.006Z,43.49
2019-02-15T05:01:02.269Z,43.50
2019-02-15T05:01:38.523Z,43.54
2019-02-15T05:02:14.649Z,43.62
2019-02-15T05:02:50.964Z,43.60
2019-02-15T05:03:27.215Z,43.35
2019-02-15T05:04:03.484Z,43.12
2019-02-15T05:04:39.605Z,43.07
2019-02-15T05:05:15.868Z,43.05
2019-02-15T05:05:52.138Z,43.02
2019-02-15T05:06:28.241Z,42.97
2019-02-15T05:07:04.280Z,42.93
2019-02-15T05:07:40.439Z,43.19
2019-02-15T05:08:16.543Z,43.08
2019-02-15T05:08:52.634Z,42.93
2019-02-15T05:09:28.902Z,42.85
2019-02-15T05:10:05.181Z,42.88
2019-02-15T05:10:41.314Z,42.79
2019-02-15T05:11:17.421Z,42.56
2019-02-15T05:11:53.517Z,42.57
2019-02-15T05:12:29.630Z,42.58
2019-02-15T05:13:05.757Z,42.76
2019-02-15T05:13:41.962Z,42.77
2019-02-15T05:14:18.081Z,42.66
2019-02-15T05:14:54.311Z,42.54
2019-02-15T05:15:30.369Z,42.40
2019-02-15T05:16:06.476Z,42.19
2019-02-15T05:16:42.434Z,42.02
2019-02-15T05:17:18.404Z,41.85
2019-02-15T05:17:54.673Z,41.72
2019-02-15T05:18:30.910Z,41.72
2019-02-15T05:19:06.955Z,41.70
2019-02-15T05:19:42.863Z,41.63
2019-02-15T05:20:18.995Z,41.73
2019-02-15T05:20:55.170Z,41.93
2019-02-15T05:21:31.369Z,42.35
2019-02-15T05:22:07.789Z,42.43
2019-02-15T05:22:43.733Z,42.43
2019-02-15T05:23:19.949Z,42.42
2019-02-15T05:23:56.084Z,42.47
2019-02-15T05:24:32.192Z,42.52
2019-02-15T05:25:08.396Z,42.55
2019-02-15T05:25:44.454Z,42.53
2019-02-15T05:26:20.635Z,42.29
2019-02-15T05:26:56.671Z,42.14
2019-02-15T05:27:32.750Z,42.13
2019-02-15T05:28:09.087Z,42.19
2019-02-15T05:28:45.259Z,42.34
2019-02-15T05:29:21.434Z,42.54
2019-02-15T05:29:57.561Z,42.55
2019-02-15T05:30:33.623Z,42.74
2019-02-15T05:31:09.629Z,42.59
2019-02-15T05:31:45.929Z,42.51
2019-02-15T05:32:21.995Z,42.46
2019-02-15T05:32:58.113Z,42.29
2019-02-15T05:33:35.696Z,42.15
2019-02-15T05:34:11.790Z,42.12
2019-02-15T05:34:47.942Z,42.13
2019-02-15T05:35:24.185Z,42.15
2019-02-15T05:36:00.333Z,42.18
2019-02-15T05:36:36.547Z,42.43
2019-02-15T05:37:12.702Z,42.62
2019-02-15T05:37:48.773Z,42.74
2019-02-15T05:38:24.867Z,42.58
2019-02-15T05:39:00.935Z,42.52
2019-02-15T05:39:37.154Z,42.50
2019-02-15T05:40:13.409Z,42.37
2019-02-15T05:40:49.489Z,42.32
2019-02-15T05:41:25.550Z,42.26
2019-02-15T05:42:01.701Z,42.28
2019-02-15T05:42:37.863Z,42.26
2019-02-15T05:43:14.060Z,42.22
2019-02-15T05:43:50.196Z,42.18
2019-02-15T05:44:26.330Z,42.07
2019-02-15T05:45:04.168Z,42.07
2019-02-15T05:45:40.232Z,42.22
2019-02-15T05:46:16.173Z,42.21
2019-02-15T05:46:52.193Z,41.95
2019-02-15T05:47:28.529Z,41.57
2019-02-15T05:48:04.608Z,41.53
2019-02-15T05:48:40.894Z,41.56
2019-02-15T05:49:17.045Z,41.68
2019-02-15T05:49:53.215Z,41.87
2019-02-15T05:50:29.383Z,41.92
2019-02-15T05:51:05.515Z,41.85
2019-02-15T05:51:41.656Z,42.24
2019-02-15T05:52:17.825Z,42.35
2019-02-15T05:52:54.124Z,42.42
2019-02-15T05:53:30.251Z,42.36
2019-02-15T05:54:06.294Z,42.29
2019-02-15T05:54:42.606Z,42.33
2019-02-15T05:55:18.876Z,42.27
2019-02-15T05:55:55.160Z,42.19
2019-02-15T05:56:31.413Z,42.19
2019-02-15T05:57:09.550Z,42.15
2019-02-15T05:57:45.379Z,42.10
2019-02-15T05:58:21.644Z,42.22
2019-02-15T05:58:57.723Z,42.23
2019-02-15T05:59:33.932Z,42.30
2019-02-15T06:00:10.746Z,42.41
2019-02-15T06:00:47.051Z,42.45
2019-02-15T06:01:24.618Z,42.56
2019-02-15T06:02:00.745Z,42.79
2019-02-15T06:02:37.011Z,42.67
2019-02-15T06:03:13.802Z,42.66
2019-02-15T06:03:50.061Z,42.70
2019-02-15T06:04:26.147Z,42.55
2019-02-15T06:05:02.224Z,42.54
2019-02-15T06:05:38.284Z,42.56
2019-02-15T06:06:14.280Z,42.54
2019-02-15T06:06:50.362Z,42.45
2019-02-15T06:07:26.468Z,42.39
2019-02-15T06:08:02.501Z,42.59
2019-02-15T06:08:38.582Z,42.93
2019-02-15T06:09:14.742Z,43.20
2019-02-15T06:09:50.928Z,42.96
2019-02-15T06:10:27.086Z,42.86
2019-02-15T06:11:07.564Z,42.72
2019-02-15T06:11:41.229Z,42.79
2019-02-15T06:12:17.183Z,42.93
2019-02-15T06:12:53.488Z,43.11
2019-02-15T06:13:29.636Z,43.31
2019-02-15T06:14:05.669Z,43.54
2019-02-15T06:14:41.790Z,43.82
2019-02-15T06:15:17.996Z,43.99
2019-02-15T06:15:54.051Z,44.12
2019-02-15T06:16:30.368Z,44.23
2019-02-15T06:17:06.574Z,44.48
2019-02-15T06:17:42.710Z,44.68
2019-02-15T06:18:18.993Z,44.67
2019-02-15T06:18:55.131Z,45.03
2019-02-15T06:19:31.399Z,45.05
2019-02-15T06:20:07.962Z,45.10
2019-02-15T06:20:44.113Z,45.25
2019-02-15T06:21:20.362Z,45.21
2019-02-15T06:21:56.543Z,45.21
2019-02-15T06:22:32.726Z,45.40
2019-02-15T06:23:08.909Z,45.52
2019-02-15T06:23:45.304Z,45.36
2019-02-15T06:24:21.457Z,45.40
2019-02-15T06:24:57.545Z,45.51
2019-02-15T06:25:33.789Z,45.50
2019-02-15T06:26:09.928Z,45.71
2019-02-15T06:26:46.114Z,45.78
2019-02-15T06:27:22.138Z,46.01
2019-02-15T06:27:58.105Z,46.11
2019-02-15T06:28:34.396Z,46.37
2019-02-15T06:29:10.540Z,46.32
2019-02-15T06:29:46.788Z,46.29
2019-02-15T06:30:22.968Z,46.29
2019-02-15T06:30:59.014Z,46.31
2019-02-15T06:31:35.129Z,46.35
2019-02-15T06:32:11.218Z,46.28
2019-02-15T06:32:47.341Z,46.21
2019-02-15T06:33:23.646Z,46.05
2019-02-15T06:33:59.874Z,45.76
2019-02-15T06:34:36.264Z,45.66
2019-02-15T06:35:12.330Z,45.64
2019-02-15T06:35:48.421Z,45.71
2019-02-15T06:36:26.288Z,45.82
2019-02-15T06:37:02.400Z,45.75
2019-02-15T06:37:38.745Z,45.60
2019-02-15T06:38:14.988Z,45.38
2019-02-15T06:38:51.091Z,45.51
2019-02-15T06:39:27.400Z,45.63
2019-02-15T06:40:03.523Z,45.72
2019-02-15T06:40:39.632Z,45.61
2019-02-15T06:41:15.693Z,45.62
2019-02-15T06:41:51.965Z,45.50
2019-02-15T06:42:28.000Z,45.70
2019-02-15T06:43:04.006Z,45.76
2019-02-15T06:43:39.993Z,45.84
2019-02-15T06:44:16.419Z,45.71
2019-02-15T06:44:52.456Z,45.71
2019-02-15T06:45:28.437Z,45.69
2019-02-15T06:46:04.648Z,45.65
2019-02-15T06:46:40.692Z,45.71
2019-02-15T06:47:16.831Z,45.48
2019-02-15T06:47:52.834Z,45.40
2019-02-15T06:48:29.045Z,45.42
2019-02-15T06:49:05.160Z,45.59
2019-02-15T06:49:41.357Z,45.46
2019-02-15T06:50:17.402Z,45.35
2019-02-15T06:50:53.569Z,45.24
2019-02-15T06:51:29.775Z,45.07
2019-02-15T06:52:05.767Z,45.43
2019-02-15T06:52:42.026Z,45.51
2019-02-15T06:53:18.114Z,45.87
2019-02-15T06:53:54.099Z,45.55
2019-02-15T06:54:30.142Z,45.38
2019-02-15T06:55:06.238Z,45.42
2019-02-15T06:55:42.520Z,45.39
2019-02-15T06:56:18.749Z,45.19
2019-02-15T06:56:54.774Z,45.11
2019-02-15T06:57:30.921Z,44.99
2019-02-15T06:58:07.028Z,44.85
2019-02-15T06:58:58.571Z,44.66
2019-02-15T06:59:45.743Z,44.50
2019-02-15T07:00:48.212Z,44.18
2019-02-15T07:01:31.810Z,43.70
2019-02-15T07:02:27.085Z,43.54
2019-02-15T07:03:27.698Z,43.74
2019-02-15T07:04:08.041Z,43.75
2019-02-15T07:04:58.509Z,43.65
2019-02-15T07:05:34.837Z,43.62
2019-02-15T07:06:10.799Z,43.61
2019-02-15T07:06:47.062Z,43.50
2019-02-15T07:07:23.253Z,43.55
2019-02-15T07:07:59.433Z,43.65
2019-02-15T07:08:35.495Z,43.60
2019-02-15T07:09:11.653Z,43.60
2019-02-15T07:09:47.924Z,43.53
2019-02-15T07:10:24.113Z,43.60
2019-02-15T07:11:00.346Z,43.61
2019-02-15T07:11:36.463Z,43.62
2019-02-15T07:12:12.596Z,43.63
2019-02-15T07:12:49.009Z,43.69
2019-02-15T07:13:25.213Z,43.76
2019-02-15T07:14:01.389Z,43.95
2019-02-15T07:14:37.553Z,44.04
2019-02-15T07:15:13.766Z,43.91
2019-02-15T07:15:50.088Z,43.76
2019-02-15T07:16:26.088Z,43.77
2019-02-15T07:17:02.285Z,43.83
2019-02-15T07:17:38.550Z,43.85
2019-02-15T07:18:14.555Z,43.72
2019-02-15T07:18:50.711Z,43.68
2019-02-15T07:19:26.634Z,43.39
2019-02-15T07:20:02.721Z,43.28
2019-02-15T07:20:38.791Z,43.15
2019-02-15T07:21:15.029Z,43.10
2019-02-15T07:21:51.092Z,43.09
2019-02-15T07:22:27.235Z,43.08
2019-02-15T07:23:03.347Z,43.16
2019-02-15T07:23:39.502Z,43.25
2019-02-15T07:24:15.703Z,43.39
2019-02-15T07:24:51.911Z,43.67
2019-02-15T07:25:28.196Z,43.81
2019-02-15T07:26:04.469Z,44.06
2019-02-15T07:26:40.586Z,44.28
2019-02-15T07:27:16.597Z,44.82
2019-02-15T07:27:52.792Z,44.72
2019-02-15T07:28:28.987Z,44.71
2019-02-15T07:29:05.059Z,44.85
2019-02-15T07:29:41.292Z,44.97
2019-02-15T07:30:17.272Z,44.90
2019-02-15T07:30:53.471Z,44.72
2019-02-15T07:31:29.540Z,44.62
2019-02-15T07:32:05.692Z,44.59
2019-02-15T07:32:41.600Z,44.70
2019-02-15T07:33:17.676Z,44.67
2019-02-15T07:33:53.879Z,44.65
2019-02-15T07:34:29.909Z,44.73
2019-02-15T07:35:06.065Z,44.85
2019-02-15T07:35:42.330Z,44.97
2019-02-15T07:36:18.363Z,45.04
2019-02-15T07:36:54.499Z,44.95
2019-02-15T07:37:30.657Z,44.87
2019-02-15T07:38:06.940Z,44.66
2019-02-15T07:38:43.037Z,44.28
2019-02-15T07:39:19.244Z,44.03
2019-02-15T07:39:55.330Z,43.95
2019-02-15T07:40:31.424Z,43.97
2019-02-15T07:41:07.442Z,43.97
2019-02-15T07:41:43.560Z,44.17
2019-02-15T07:42:21.264Z,44.12
2019-02-15T07:42:57.379Z,44.20
2019-02-15T07:43:33.695Z,44.13
2019-02-15T07:44:09.839Z,44.21
2019-02-15T07:44:45.981Z,44.26
2019-02-15T07:45:22.727Z,44.22
2019-02-15T07:45:59.055Z,44.16
2019-02-15T07:46:35.154Z,44.22
2019-02-15T07:47:11.247Z,44.34
2019-02-15T07:47:47.352Z,44.39
2019-02-15T07:48:23.618Z,44.47
2019-02-15T07:48:59.818Z,44.48
2019-02-15T07:49:36.113Z,44.57
2019-02-15T07:50:13.941Z,44.73
2019-02-15T07:50:50.322Z,44.61
2019-02-15T07:51:26.599Z,44.58
2019-02-15T07:52:02.670Z,44.47
2019-02-15T07:52:38.734Z,44.60
2019-02-15T07:53:14.958Z,44.63
2019-02-15T07:53:51.070Z,44.46
2019-02-15T07:54:27.107Z,44.42
2019-02-15T07:55:03.117Z,44.44
2019-02-15T07:55:39.404Z,44.43
2019-02-15T07:56:15.649Z,44.48
2019-02-15T07:56:51.914Z,44.64
2019-02-15T07:57:28.227Z,44.70
2019-02-15T07:58:04.342Z,44.79
2019-02-15T07:58:40.636Z,44.99
2019-02-15T07:59:16.664Z,45.13
2019-02-15T07:59:52.786Z,45.38
2019-02-15T08:00:28.853Z,45.65
2019-02-15T08:01:04.805Z,45.76
2019-02-15T08:01:40.826Z,45.98
2019-02-15T08:02:16.880Z,46.16
2019-02-15T08:02:52.931Z,46.29
2019-02-15T08:03:29.044Z,46.46
2019-02-15T08:04:06.853Z,46.54
2019-02-15T08:04:43.158Z,46.67
2019-02-15T08:05:19.234Z,46.79
2019-02-15T08:05:55.398Z,46.73
2019-02-15T08:06:31.499Z,46.83
2019-02-15T08:07:07.538Z,46.96
2019-02-15T08:07:43.629Z,47.00
2019-02-15T08:08:19.813Z,47.17
2019-02-15T08:08:56.024Z,47.23
2019-02-15T08:09:32.261Z,47.25
2019-02-15T08:10:08.866Z,47.44
2019-02-15T08:10:45.003Z,47.51
2019-02-15T08:11:21.132Z,47.43
2019-02-15T08:11:57.161Z,47.33
2019-02-15T08:12:33.272Z,47.33
2019-02-15T08:13:09.311Z,47.37
2019-02-15T08:13:45.373Z,47.34
2019-02-15T08:14:21.492Z,47.53
2019-02-15T08:14:57.616Z,47.57
2019-02-15T08:15:36.342Z,47.66
2019-02-15T08:16:11.698Z,47.80
2019-02-15T08:16:47.853Z,47.86
2019-02-15T08:17:24.108Z,47.83
2019-02-15T08:18:00.228Z,47.64
2019-02-15T08:18:36.288Z,47.59
2019-02-15T08:19:12.488Z,47.61
2019-02-15T08:19:48.646Z,47.71
2019-02-15T08:20:24.763Z,47.85